sensor_id;sensor_type;location;lat;lon;timestamp;P1;durP1;ratioP1;P2;durP2;ratioP2
52124;SDS011;38119;52.710;6.398;2023-08-20T00:01:32;14.55;;;7.82;;
52124;SDS011;38119;52.710;6.398;2023-08-20T00:03:57;13.98;;;8.30;;
52124;SDS011;38119;52.710;6.398;2023-08-20T00:06:23;19.92;;;8.52;;
52124;SDS011;38119;52.710;6.398;2023-08-20T00:08:49;15.00;;;7.90;;
52124;SDS011;38119;52.710;6.398;2023-08-20T00:11:15;14.05;;;7.20;;
52124;SDS011;38119;52.710;6.398;2023-08-20T00:13:41;11.43;;;7.07;;
52124;SDS011;38119;52.710;6.398;2023-08-20T00:16:08;14.52;;;7.03;;
52124;SDS011;38119;52.710;6.398;2023-08-20T00:18:34;11.10;;;6.32;;
52124;SDS011;38119;52.710;6.398;2023-08-20T00:21:00;13.02;;;6.22;;
52124;SDS011;38119;52.710;6.398;2023-08-20T00:23:26;10.38;;;5.93;;
52124;SDS011;38119;52.710;6.398;2023-08-20T00:25:57;11.02;;;5.65;;
52124;SDS011;38119;52.710;6.398;2023-08-20T00:28:25;13.13;;;5.72;;
52124;SDS011;38119;52.710;6.398;2023-08-20T00:30:52;13.02;;;6.03;;
52124;SDS011;38119;52.710;6.398;2023-08-20T00:33:20;12.20;;;5.45;;
52124;SDS011;38119;52.710;6.398;2023-08-20T00:35:46;12.63;;;5.97;;
52124;SDS011;38119;52.710;6.398;2023-08-20T00:38:13;12.20;;;5.95;;
52124;SDS011;38119;52.710;6.398;2023-08-20T00:40:41;10.73;;;5.95;;
52124;SDS011;38119;52.710;6.398;2023-08-20T00:43:09;10.48;;;6.15;;
52124;SDS011;38119;52.710;6.398;2023-08-20T00:45:34;13.20;;;6.60;;
52124;SDS011;38119;52.710;6.398;2023-08-20T00:48:01;13.77;;;6.07;;
52124;SDS011;38119;52.710;6.398;2023-08-20T00:50:27;11.57;;;5.90;;
52124;SDS011;38119;52.710;6.398;2023-08-20T00:52:53;10.18;;;5.65;;
52124;SDS011;38119;52.710;6.398;2023-08-20T00:55:19;11.13;;;6.28;;
52124;SDS011;38119;52.710;6.398;2023-08-20T00:57:45;11.38;;;5.88;;
52124;SDS011;38119;52.710;6.398;2023-08-20T01:00:11;14.07;;;7.18;;
52124;SDS011;38119;52.710;6.398;2023-08-20T01:02:37;12.20;;;6.82;;
52124;SDS011;38119;52.710;6.398;2023-08-20T01:05:04;15.23;;;6.75;;
52124;SDS011;38119;52.710;6.398;2023-08-20T01:10:27;14.90;;;6.65;;
52124;SDS011;38119;52.710;6.398;2023-08-20T01:13:04;14.10;;;6.85;;
52124;SDS011;38119;52.710;6.398;2023-08-20T01:15:31;11.05;;;6.90;;
52124;SDS011;38119;52.710;6.398;2023-08-20T01:17:56;11.85;;;7.28;;
52124;SDS011;38119;52.710;6.398;2023-08-20T01:20:23;12.68;;;7.32;;
52124;SDS011;38119;52.710;6.398;2023-08-20T01:25:45;12.70;;;6.60;;
52124;SDS011;38119;52.710;6.398;2023-08-20T01:30:53;11.57;;;6.43;;
52124;SDS011;38119;52.710;6.398;2023-08-20T01:33:21;10.20;;;7.25;;
52124;SDS011;38119;52.710;6.398;2023-08-20T01:35:49;9.18;;;6.00;;
52124;SDS011;38119;52.710;6.398;2023-08-20T01:38:15;10.13;;;5.45;;
52124;SDS011;38119;52.710;6.398;2023-08-20T01:40:41;8.35;;;5.45;;
52124;SDS011;38119;52.710;6.398;2023-08-20T01:43:06;8.43;;;5.47;;
52124;SDS011;38119;52.710;6.398;2023-08-20T01:45:32;13.15;;;6.13;;
52124;SDS011;38119;52.710;6.398;2023-08-20T01:47:58;11.55;;;6.25;;
52124;SDS011;38119;52.710;6.398;2023-08-20T01:50:23;10.80;;;6.15;;
52124;SDS011;38119;52.710;6.398;2023-08-20T01:52:49;11.90;;;6.28;;
52124;SDS011;38119;52.710;6.398;2023-08-20T01:55:14;13.30;;;6.72;;
52124;SDS011;38119;52.710;6.398;2023-08-20T01:57:40;12.35;;;6.40;;
52124;SDS011;38119;52.710;6.398;2023-08-20T02:00:06;13.80;;;6.38;;
52124;SDS011;38119;52.710;6.398;2023-08-20T02:02:33;10.65;;;6.90;;
52124;SDS011;38119;52.710;6.398;2023-08-20T02:04:59;9.50;;;6.07;;
52124;SDS011;38119;52.710;6.398;2023-08-20T02:07:25;8.80;;;5.70;;
52124;SDS011;38119;52.710;6.398;2023-08-20T02:09:51;8.82;;;5.38;;
52124;SDS011;38119;52.710;6.398;2023-08-20T02:12:17;8.73;;;5.65;;
52124;SDS011;38119;52.710;6.398;2023-08-20T02:14:43;11.60;;;5.97;;
52124;SDS011;38119;52.710;6.398;2023-08-20T02:17:08;9.98;;;6.38;;
52124;SDS011;38119;52.710;6.398;2023-08-20T02:19:34;11.88;;;6.00;;
52124;SDS011;38119;52.710;6.398;2023-08-20T02:22:00;8.18;;;6.55;;
52124;SDS011;38119;52.710;6.398;2023-08-20T02:24:26;9.57;;;5.57;;
52124;SDS011;38119;52.710;6.398;2023-08-20T02:26:51;11.38;;;6.03;;
52124;SDS011;38119;52.710;6.398;2023-08-20T02:29:17;10.02;;;6.65;;
52124;SDS011;38119;52.710;6.398;2023-08-20T02:31:43;13.73;;;7.03;;
52124;SDS011;38119;52.710;6.398;2023-08-20T02:34:09;11.85;;;6.55;;
52124;SDS011;38119;52.710;6.398;2023-08-20T02:36:34;12.63;;;6.65;;
52124;SDS011;38119;52.710;6.398;2023-08-20T02:39:00;10.43;;;6.68;;
52124;SDS011;38119;52.710;6.398;2023-08-20T02:41:26;11.50;;;6.68;;
52124;SDS011;38119;52.710;6.398;2023-08-20T02:43:51;10.45;;;6.85;;
52124;SDS011;38119;52.710;6.398;2023-08-20T02:46:17;11.88;;;7.20;;
52124;SDS011;38119;52.710;6.398;2023-08-20T02:48:42;10.60;;;7.38;;
52124;SDS011;38119;52.710;6.398;2023-08-20T02:51:08;10.73;;;6.85;;
52124;SDS011;38119;52.710;6.398;2023-08-20T02:53:34;11.10;;;6.47;;
52124;SDS011;38119;52.710;6.398;2023-08-20T02:55:59;12.63;;;7.05;;
52124;SDS011;38119;52.710;6.398;2023-08-20T02:58:25;11.30;;;7.07;;
52124;SDS011;38119;52.710;6.398;2023-08-20T03:00:50;9.60;;;6.85;;
52124;SDS011;38119;52.710;6.398;2023-08-20T03:03:16;13.15;;;7.53;;
52124;SDS011;38119;52.710;6.398;2023-08-20T03:05:42;13.60;;;7.85;;
52124;SDS011;38119;52.710;6.398;2023-08-20T03:08:07;14.65;;;8.75;;
52124;SDS011;38119;52.710;6.398;2023-08-20T03:10:33;15.63;;;9.07;;
52124;SDS011;38119;52.710;6.398;2023-08-20T03:13:00;13.90;;;9.05;;
52124;SDS011;38119;52.710;6.398;2023-08-20T03:15:27;19.67;;;8.85;;
52124;SDS011;38119;52.710;6.398;2023-08-20T03:17:53;12.60;;;8.38;;
52124;SDS011;38119;52.710;6.398;2023-08-20T03:20:19;16.35;;;9.23;;
52124;SDS011;38119;52.710;6.398;2023-08-20T03:22:44;20.88;;;8.80;;
52124;SDS011;38119;52.710;6.398;2023-08-20T03:25:10;13.50;;;8.55;;
52124;SDS011;38119;52.710;6.398;2023-08-20T03:27:36;14.20;;;9.18;;
52124;SDS011;38119;52.710;6.398;2023-08-20T03:30:02;16.27;;;9.43;;
52124;SDS011;38119;52.710;6.398;2023-08-20T03:32:29;17.58;;;9.75;;
52124;SDS011;38119;52.710;6.398;2023-08-20T03:34:54;16.38;;;9.75;;
52124;SDS011;38119;52.710;6.398;2023-08-20T03:37:21;17.77;;;10.43;;
52124;SDS011;38119;52.710;6.398;2023-08-20T03:39:47;18.88;;;10.98;;
52124;SDS011;38119;52.710;6.398;2023-08-20T03:42:13;16.70;;;10.60;;
52124;SDS011;38119;52.710;6.398;2023-08-20T03:44:39;17.92;;;10.80;;
52124;SDS011;38119;52.710;6.398;2023-08-20T03:47:04;21.30;;;10.95;;
52124;SDS011;38119;52.710;6.398;2023-08-20T03:49:30;15.45;;;10.75;;
52124;SDS011;38119;52.710;6.398;2023-08-20T03:51:56;16.42;;;10.77;;
52124;SDS011;38119;52.710;6.398;2023-08-20T03:54:21;16.65;;;10.35;;
52124;SDS011;38119;52.710;6.398;2023-08-20T03:56:47;16.27;;;10.50;;
52124;SDS011;38119;52.710;6.398;2023-08-20T03:59:12;21.15;;;10.88;;
52124;SDS011;38119;52.710;6.398;2023-08-20T04:01:38;20.35;;;12.40;;
52124;SDS011;38119;52.710;6.398;2023-08-20T04:04:04;17.67;;;11.25;;
52124;SDS011;38119;52.710;6.398;2023-08-20T04:06:30;17.88;;;11.57;;
52124;SDS011;38119;52.710;6.398;2023-08-20T04:08:55;17.83;;;11.50;;
52124;SDS011;38119;52.710;6.398;2023-08-20T04:11:21;19.42;;;12.90;;
52124;SDS011;38119;52.710;6.398;2023-08-20T04:13:47;20.08;;;11.55;;
52124;SDS011;38119;52.710;6.398;2023-08-20T04:16:12;18.88;;;12.23;;
52124;SDS011;38119;52.710;6.398;2023-08-20T04:18:38;16.65;;;11.52;;
52124;SDS011;38119;52.710;6.398;2023-08-20T04:21:04;17.35;;;11.75;;
52124;SDS011;38119;52.710;6.398;2023-08-20T04:23:30;20.00;;;10.65;;
52124;SDS011;38119;52.710;6.398;2023-08-20T04:25:56;15.23;;;11.45;;
52124;SDS011;38119;52.710;6.398;2023-08-20T04:28:22;16.77;;;10.60;;
52124;SDS011;38119;52.710;6.398;2023-08-20T04:30:47;16.95;;;11.15;;
52124;SDS011;38119;52.710;6.398;2023-08-20T04:33:14;16.55;;;11.32;;
52124;SDS011;38119;52.710;6.398;2023-08-20T04:35:40;16.08;;;11.20;;
52124;SDS011;38119;52.710;6.398;2023-08-20T04:38:05;17.35;;;11.20;;
52124;SDS011;38119;52.710;6.398;2023-08-20T04:40:32;20.35;;;11.25;;
52124;SDS011;38119;52.710;6.398;2023-08-20T04:42:58;17.40;;;10.65;;
52124;SDS011;38119;52.710;6.398;2023-08-20T04:45:24;15.30;;;11.02;;
52124;SDS011;38119;52.710;6.398;2023-08-20T04:47:49;17.75;;;11.98;;
52124;SDS011;38119;52.710;6.398;2023-08-20T04:50:15;17.17;;;11.18;;
52124;SDS011;38119;52.710;6.398;2023-08-20T04:52:41;17.20;;;10.65;;
52124;SDS011;38119;52.710;6.398;2023-08-20T04:55:06;17.08;;;10.68;;
52124;SDS011;38119;52.710;6.398;2023-08-20T04:57:33;15.32;;;10.77;;
52124;SDS011;38119;52.710;6.398;2023-08-20T04:59:59;16.75;;;10.73;;
52124;SDS011;38119;52.710;6.398;2023-08-20T05:02:25;18.25;;;11.75;;
52124;SDS011;38119;52.710;6.398;2023-08-20T05:04:51;15.63;;;10.80;;
52124;SDS011;38119;52.710;6.398;2023-08-20T05:07:17;16.08;;;10.75;;
52124;SDS011;38119;52.710;6.398;2023-08-20T05:09:42;15.15;;;10.00;;
52124;SDS011;38119;52.710;6.398;2023-08-20T05:12:08;13.35;;;9.88;;
52124;SDS011;38119;52.710;6.398;2023-08-20T05:14:34;15.80;;;9.73;;
52124;SDS011;38119;52.710;6.398;2023-08-20T05:17:00;14.88;;;9.68;;
52124;SDS011;38119;52.710;6.398;2023-08-20T05:19:25;17.65;;;9.90;;
52124;SDS011;38119;52.710;6.398;2023-08-20T05:21:51;16.10;;;9.82;;
52124;SDS011;38119;52.710;6.398;2023-08-20T05:24:21;15.40;;;9.77;;
52124;SDS011;38119;52.710;6.398;2023-08-20T05:26:50;14.98;;;9.23;;
52124;SDS011;38119;52.710;6.398;2023-08-20T05:29:34;15.13;;;9.02;;
52124;SDS011;38119;52.710;6.398;2023-08-20T05:32:02;18.30;;;9.90;;
52124;SDS011;38119;52.710;6.398;2023-08-20T05:34:27;14.52;;;9.90;;
52124;SDS011;38119;52.710;6.398;2023-08-20T05:36:53;12.15;;;9.10;;
52124;SDS011;38119;52.710;6.398;2023-08-20T05:39:19;12.93;;;10.18;;
52124;SDS011;38119;52.710;6.398;2023-08-20T05:41:45;12.52;;;9.45;;
52124;SDS011;38119;52.710;6.398;2023-08-20T05:44:10;15.15;;;10.13;;
52124;SDS011;38119;52.710;6.398;2023-08-20T05:46:36;14.27;;;9.38;;
52124;SDS011;38119;52.710;6.398;2023-08-20T05:49:02;14.98;;;9.73;;
52124;SDS011;38119;52.710;6.398;2023-08-20T05:51:27;14.50;;;10.15;;
52124;SDS011;38119;52.710;6.398;2023-08-20T05:53:53;17.05;;;10.00;;
52124;SDS011;38119;52.710;6.398;2023-08-20T05:56:19;16.42;;;10.15;;
52124;SDS011;38119;52.710;6.398;2023-08-20T05:58:44;19.00;;;10.38;;
52124;SDS011;38119;52.710;6.398;2023-08-20T06:01:11;17.08;;;10.05;;
52124;SDS011;38119;52.710;6.398;2023-08-20T06:03:36;13.82;;;9.52;;
52124;SDS011;38119;52.710;6.398;2023-08-20T06:06:02;16.42;;;10.60;;
52124;SDS011;38119;52.710;6.398;2023-08-20T06:08:28;12.98;;;9.55;;
52124;SDS011;38119;52.710;6.398;2023-08-20T06:10:53;16.85;;;10.60;;
52124;SDS011;38119;52.710;6.398;2023-08-20T06:13:19;16.98;;;10.68;;
52124;SDS011;38119;52.710;6.398;2023-08-20T06:15:45;16.40;;;9.40;;
52124;SDS011;38119;52.710;6.398;2023-08-20T06:18:10;15.45;;;8.80;;
52124;SDS011;38119;52.710;6.398;2023-08-20T06:20:36;15.48;;;9.65;;
52124;SDS011;38119;52.710;6.398;2023-08-20T06:23:02;16.08;;;9.65;;
52124;SDS011;38119;52.710;6.398;2023-08-20T06:25:28;16.95;;;9.93;;
52124;SDS011;38119;52.710;6.398;2023-08-20T06:27:54;15.30;;;9.35;;
52124;SDS011;38119;52.710;6.398;2023-08-20T06:30:19;19.27;;;9.60;;
52124;SDS011;38119;52.710;6.398;2023-08-20T06:32:45;16.38;;;8.85;;
52124;SDS011;38119;52.710;6.398;2023-08-20T06:35:10;17.17;;;9.10;;
52124;SDS011;38119;52.710;6.398;2023-08-20T06:37:37;18.25;;;9.02;;
52124;SDS011;38119;52.710;6.398;2023-08-20T06:40:04;19.70;;;9.05;;
52124;SDS011;38119;52.710;6.398;2023-08-20T06:42:30;13.27;;;8.23;;
52124;SDS011;38119;52.710;6.398;2023-08-20T06:44:56;18.77;;;9.02;;
52124;SDS011;38119;52.710;6.398;2023-08-20T06:47:22;16.63;;;8.85;;
52124;SDS011;38119;52.710;6.398;2023-08-20T06:49:47;14.98;;;8.77;;
52124;SDS011;38119;52.710;6.398;2023-08-20T06:52:14;14.85;;;8.05;;
52124;SDS011;38119;52.710;6.398;2023-08-20T06:54:40;17.05;;;8.85;;
52124;SDS011;38119;52.710;6.398;2023-08-20T06:57:05;14.35;;;7.80;;
52124;SDS011;38119;52.710;6.398;2023-08-20T06:59:31;17.02;;;8.15;;
52124;SDS011;38119;52.710;6.398;2023-08-20T07:01:56;16.35;;;7.97;;
52124;SDS011;38119;52.710;6.398;2023-08-20T07:04:22;15.90;;;7.82;;
52124;SDS011;38119;52.710;6.398;2023-08-20T07:06:48;18.27;;;7.63;;
52124;SDS011;38119;52.710;6.398;2023-08-20T07:09:13;15.52;;;7.20;;
52124;SDS011;38119;52.710;6.398;2023-08-20T07:11:39;16.77;;;7.72;;
52124;SDS011;38119;52.710;6.398;2023-08-20T07:14:04;12.95;;;7.47;;
52124;SDS011;38119;52.710;6.398;2023-08-20T07:16:30;17.75;;;8.23;;
52124;SDS011;38119;52.710;6.398;2023-08-20T07:18:56;14.35;;;6.78;;
52124;SDS011;38119;52.710;6.398;2023-08-20T07:21:22;15.75;;;6.70;;
52124;SDS011;38119;52.710;6.398;2023-08-20T07:23:48;14.30;;;7.15;;
52124;SDS011;38119;52.710;6.398;2023-08-20T07:26:13;16.65;;;7.05;;
52124;SDS011;38119;52.710;6.398;2023-08-20T07:28:40;14.15;;;6.45;;
52124;SDS011;38119;52.710;6.398;2023-08-20T07:31:32;17.30;;;7.80;;
52124;SDS011;38119;52.710;6.398;2023-08-20T07:33:59;15.85;;;7.35;;
52124;SDS011;38119;52.710;6.398;2023-08-20T07:36:25;20.48;;;7.43;;
52124;SDS011;38119;52.710;6.398;2023-08-20T07:38:54;17.65;;;6.88;;
52124;SDS011;38119;52.710;6.398;2023-08-20T07:41:20;15.32;;;6.75;;
52124;SDS011;38119;52.710;6.398;2023-08-20T07:43:47;15.23;;;6.22;;
52124;SDS011;38119;52.710;6.398;2023-08-20T07:46:14;13.48;;;6.32;;
52124;SDS011;38119;52.710;6.398;2023-08-20T07:48:40;14.82;;;6.10;;
52124;SDS011;38119;52.710;6.398;2023-08-20T07:51:06;13.73;;;6.15;;
52124;SDS011;38119;52.710;6.398;2023-08-20T07:53:32;16.75;;;5.95;;
52124;SDS011;38119;52.710;6.398;2023-08-20T07:55:59;16.70;;;4.90;;
52124;SDS011;38119;52.710;6.398;2023-08-20T07:58:25;15.60;;;5.10;;
52124;SDS011;38119;52.710;6.398;2023-08-20T08:00:50;10.43;;;4.57;;
52124;SDS011;38119;52.710;6.398;2023-08-20T08:03:16;14.88;;;5.43;;
52124;SDS011;38119;52.710;6.398;2023-08-20T08:05:45;18.15;;;5.30;;
52124;SDS011;38119;52.710;6.398;2023-08-20T08:08:15;14.48;;;5.18;;
52124;SDS011;38119;52.710;6.398;2023-08-20T08:10:41;13.85;;;5.30;;
52124;SDS011;38119;52.710;6.398;2023-08-20T08:13:09;15.50;;;5.22;;
52124;SDS011;38119;52.710;6.398;2023-08-20T08:15:35;15.13;;;5.28;;
52124;SDS011;38119;52.710;6.398;2023-08-20T08:18:01;14.55;;;5.68;;
52124;SDS011;38119;52.710;6.398;2023-08-20T08:20:26;12.25;;;5.75;;
52124;SDS011;38119;52.710;6.398;2023-08-20T08:22:52;15.55;;;5.60;;
52124;SDS011;38119;52.710;6.398;2023-08-20T08:25:17;15.15;;;5.40;;
52124;SDS011;38119;52.710;6.398;2023-08-20T08:27:44;16.40;;;4.85;;
52124;SDS011;38119;52.710;6.398;2023-08-20T08:30:10;14.05;;;4.45;;
52124;SDS011;38119;52.710;6.398;2023-08-20T08:32:36;18.73;;;4.80;;
52124;SDS011;38119;52.710;6.398;2023-08-20T08:35:02;15.82;;;4.72;;
52124;SDS011;38119;52.710;6.398;2023-08-20T08:37:28;15.32;;;5.35;;
52124;SDS011;38119;52.710;6.398;2023-08-20T08:39:53;15.27;;;4.07;;
52124;SDS011;38119;52.710;6.398;2023-08-20T08:42:19;13.50;;;3.60;;
52124;SDS011;38119;52.710;6.398;2023-08-20T08:44:49;11.80;;;4.25;;
52124;SDS011;38119;52.710;6.398;2023-08-20T08:47:16;11.20;;;3.55;;
52124;SDS011;38119;52.710;6.398;2023-08-20T08:49:43;13.90;;;3.35;;
52124;SDS011;38119;52.710;6.398;2023-08-20T09:18:59;8.10;;;2.63;;
52124;SDS011;38119;52.710;6.398;2023-08-20T09:21:28;8.52;;;2.38;;
52124;SDS011;38119;52.710;6.398;2023-08-20T09:23:57;9.35;;;2.97;;
52124;SDS011;38119;52.710;6.398;2023-08-20T09:26:25;8.00;;;2.00;;
52124;SDS011;38119;52.710;6.398;2023-08-20T09:28:53;6.55;;;2.60;;
52124;SDS011;38119;52.710;6.398;2023-08-20T09:31:21;7.43;;;2.40;;
52124;SDS011;38119;52.710;6.398;2023-08-20T09:34:04;7.80;;;2.70;;
52124;SDS011;38119;52.710;6.398;2023-08-20T09:36:34;7.60;;;2.70;;
52124;SDS011;38119;52.710;6.398;2023-08-20T09:39:03;9.73;;;2.47;;
52124;SDS011;38119;52.710;6.398;2023-08-20T09:41:29;4.82;;;2.00;;
52124;SDS011;38119;52.710;6.398;2023-08-20T09:43:59;6.82;;;2.35;;
52124;SDS011;38119;52.710;6.398;2023-08-20T09:46:27;6.70;;;2.10;;
52124;SDS011;38119;52.710;6.398;2023-08-20T09:48:56;8.57;;;2.67;;
52124;SDS011;38119;52.710;6.398;2023-08-20T09:51:27;9.30;;;2.58;;
52124;SDS011;38119;52.710;6.398;2023-08-20T09:53:56;8.93;;;2.28;;
52124;SDS011;38119;52.710;6.398;2023-08-20T09:56:28;8.02;;;2.22;;
52124;SDS011;38119;52.710;6.398;2023-08-20T09:58:55;7.32;;;2.40;;
52124;SDS011;38119;52.710;6.398;2023-08-20T10:01:22;7.50;;;2.83;;
52124;SDS011;38119;52.710;6.398;2023-08-20T10:03:49;7.95;;;2.65;;
52124;SDS011;38119;52.710;6.398;2023-08-20T10:06:15;8.27;;;2.55;;
52124;SDS011;38119;52.710;6.398;2023-08-20T10:08:42;9.18;;;2.63;;
52124;SDS011;38119;52.710;6.398;2023-08-20T10:11:08;13.40;;;2.88;;
52124;SDS011;38119;52.710;6.398;2023-08-20T10:13:34;7.68;;;3.00;;
52124;SDS011;38119;52.710;6.398;2023-08-20T10:15:59;9.98;;;3.05;;
52124;SDS011;38119;52.710;6.398;2023-08-20T10:18:26;9.95;;;3.30;;
52124;SDS011;38119;52.710;6.398;2023-08-20T10:20:52;11.50;;;2.83;;
52124;SDS011;38119;52.710;6.398;2023-08-20T10:23:21;9.43;;;2.58;;
52124;SDS011;38119;52.710;6.398;2023-08-20T10:25:48;8.85;;;2.63;;
52124;SDS011;38119;52.710;6.398;2023-08-20T10:28:19;6.50;;;2.17;;
52124;SDS011;38119;52.710;6.398;2023-08-20T10:33:31;4.68;;;2.15;;
52124;SDS011;38119;52.710;6.398;2023-08-20T10:36:08;6.72;;;2.30;;
52124;SDS011;38119;52.710;6.398;2023-08-20T10:38:40;7.38;;;2.47;;
52124;SDS011;38119;52.710;6.398;2023-08-20T10:41:07;11.15;;;2.75;;
52124;SDS011;38119;52.710;6.398;2023-08-20T10:43:34;6.07;;;2.05;;
52124;SDS011;38119;52.710;6.398;2023-08-20T10:46:26;8.40;;;2.33;;
52124;SDS011;38119;52.710;6.398;2023-08-20T10:48:57;5.53;;;2.00;;
52124;SDS011;38119;52.710;6.398;2023-08-20T10:51:32;5.50;;;2.08;;
52124;SDS011;38119;52.710;6.398;2023-08-20T10:56:47;6.50;;;2.00;;
52124;SDS011;38119;52.710;6.398;2023-08-20T10:59:23;7.53;;;2.28;;
52124;SDS011;38119;52.710;6.398;2023-08-20T11:01:58;6.97;;;1.90;;
52124;SDS011;38119;52.710;6.398;2023-08-20T11:04:25;6.55;;;2.03;;
52124;SDS011;38119;52.710;6.398;2023-08-20T11:06:54;6.38;;;1.88;;
52124;SDS011;38119;52.710;6.398;2023-08-20T11:09:21;5.35;;;1.80;;
52124;SDS011;38119;52.710;6.398;2023-08-20T11:11:48;8.98;;;2.20;;
52124;SDS011;38119;52.710;6.398;2023-08-20T11:14:15;4.50;;;1.63;;
52124;SDS011;38119;52.710;6.398;2023-08-20T11:16:42;4.00;;;1.63;;
52124;SDS011;38119;52.710;6.398;2023-08-20T11:19:09;5.10;;;1.80;;
52124;SDS011;38119;52.710;6.398;2023-08-20T11:21:38;6.38;;;1.77;;
52124;SDS011;38119;52.710;6.398;2023-08-20T11:24:05;7.35;;;1.67;;
52124;SDS011;38119;52.710;6.398;2023-08-20T11:26:32;5.40;;;1.90;;
52124;SDS011;38119;52.710;6.398;2023-08-20T11:28:59;7.88;;;2.08;;
52124;SDS011;38119;52.710;6.398;2023-08-20T11:31:26;6.75;;;2.03;;
52124;SDS011;38119;52.710;6.398;2023-08-20T11:33:52;6.05;;;1.83;;
52124;SDS011;38119;52.710;6.398;2023-08-20T11:36:19;5.28;;;1.70;;
52124;SDS011;38119;52.710;6.398;2023-08-20T11:38:52;4.93;;;1.73;;
52124;SDS011;38119;52.710;6.398;2023-08-20T11:41:19;4.53;;;1.40;;
52124;SDS011;38119;52.710;6.398;2023-08-20T11:43:46;6.35;;;1.85;;
52124;SDS011;38119;52.710;6.398;2023-08-20T11:46:15;4.72;;;1.55;;
52124;SDS011;38119;52.710;6.398;2023-08-20T11:51:29;4.85;;;1.70;;
52124;SDS011;38119;52.710;6.398;2023-08-20T11:54:01;3.42;;;1.42;;
52124;SDS011;38119;52.710;6.398;2023-08-20T11:56:29;4.78;;;1.60;;
52124;SDS011;38119;52.710;6.398;2023-08-20T11:58:58;5.05;;;1.50;;
52124;SDS011;38119;52.710;6.398;2023-08-20T12:01:25;6.15;;;2.03;;
52124;SDS011;38119;52.710;6.398;2023-08-20T12:03:50;6.40;;;1.88;;
52124;SDS011;38119;52.710;6.398;2023-08-20T12:06:19;6.22;;;1.90;;
52124;SDS011;38119;52.710;6.398;2023-08-20T12:08:46;4.95;;;1.70;;
52124;SDS011;38119;52.710;6.398;2023-08-20T12:11:12;6.13;;;1.60;;
52124;SDS011;38119;52.710;6.398;2023-08-20T12:13:38;6.43;;;2.15;;
52124;SDS011;38119;52.710;6.398;2023-08-20T12:16:03;5.82;;;1.80;;
52124;SDS011;38119;52.710;6.398;2023-08-20T12:18:29;5.65;;;1.75;;
52124;SDS011;38119;52.710;6.398;2023-08-20T12:20:55;5.43;;;1.70;;
52124;SDS011;38119;52.710;6.398;2023-08-20T12:23:20;4.40;;;1.70;;
52124;SDS011;38119;52.710;6.398;2023-08-20T12:25:50;6.93;;;1.50;;
52124;SDS011;38119;52.710;6.398;2023-08-20T12:28:19;6.72;;;1.77;;
52124;SDS011;38119;52.710;6.398;2023-08-20T12:30:57;7.90;;;2.25;;
52124;SDS011;38119;52.710;6.398;2023-08-20T12:33:25;5.65;;;1.70;;
52124;SDS011;38119;52.710;6.398;2023-08-20T12:35:53;5.82;;;1.73;;
52124;SDS011;38119;52.710;6.398;2023-08-20T12:39:01;7.07;;;1.77;;
52124;SDS011;38119;52.710;6.398;2023-08-20T12:42:02;5.57;;;1.85;;
52124;SDS011;38119;52.710;6.398;2023-08-20T12:44:37;5.70;;;1.55;;
52124;SDS011;38119;52.710;6.398;2023-08-20T12:48:14;4.25;;;1.58;;
52124;SDS011;38119;52.710;6.398;2023-08-20T12:51:21;6.95;;;2.03;;
52124;SDS011;38119;52.710;6.398;2023-08-20T12:54:17;5.63;;;1.98;;
52124;SDS011;38119;52.710;6.398;2023-08-20T13:00:45;4.97;;;1.40;;
52124;SDS011;38119;52.710;6.398;2023-08-20T13:03:33;5.55;;;1.70;;
52124;SDS011;38119;52.710;6.398;2023-08-20T13:06:04;6.57;;;1.95;;
52124;SDS011;38119;52.710;6.398;2023-08-20T13:08:43;5.97;;;1.50;;
52124;SDS011;38119;52.710;6.398;2023-08-20T13:13:56;5.85;;;1.30;;
52124;SDS011;38119;52.710;6.398;2023-08-20T13:16:39;4.13;;;1.30;;
52124;SDS011;38119;52.710;6.398;2023-08-20T13:20:10;4.85;;;1.40;;
52124;SDS011;38119;52.710;6.398;2023-08-20T13:23:06;5.32;;;1.92;;
52124;SDS011;38119;52.710;6.398;2023-08-20T13:25:36;4.72;;;1.55;;
52124;SDS011;38119;52.710;6.398;2023-08-20T13:28:05;4.57;;;1.25;;
52124;SDS011;38119;52.710;6.398;2023-08-20T13:30:36;4.07;;;1.35;;
52124;SDS011;38119;52.710;6.398;2023-08-20T13:33:29;5.70;;;1.52;;
52124;SDS011;38119;52.710;6.398;2023-08-20T13:35:59;6.25;;;1.52;;
52124;SDS011;38119;52.710;6.398;2023-08-20T13:38:28;4.53;;;1.25;;
52124;SDS011;38119;52.710;6.398;2023-08-20T13:41:02;6.55;;;1.33;;
52124;SDS011;38119;52.710;6.398;2023-08-20T13:43:47;3.47;;;1.25;;
52124;SDS011;38119;52.710;6.398;2023-08-20T13:46:44;3.88;;;1.35;;
52124;SDS011;38119;52.710;6.398;2023-08-20T13:49:33;4.38;;;1.20;;
52124;SDS011;38119;52.710;6.398;2023-08-20T13:52:06;2.53;;;1.13;;
52124;SDS011;38119;52.710;6.398;2023-08-20T13:54:36;3.58;;;1.30;;
52124;SDS011;38119;52.710;6.398;2023-08-20T13:57:11;3.03;;;1.10;;
52124;SDS011;38119;52.710;6.398;2023-08-20T13:59:47;1.90;;;0.90;;
52124;SDS011;38119;52.710;6.398;2023-08-20T14:02:24;2.03;;;1.08;;
52124;SDS011;38119;52.710;6.398;2023-08-20T14:05:13;2.47;;;0.90;;
52124;SDS011;38119;52.710;6.398;2023-08-20T14:07:42;2.53;;;1.02;;
52124;SDS011;38119;52.710;6.398;2023-08-20T14:10:10;2.78;;;1.15;;
52124;SDS011;38119;52.710;6.398;2023-08-20T14:13:52;4.10;;;1.23;;
52124;SDS011;38119;52.710;6.398;2023-08-20T14:16:20;3.08;;;1.00;;
52124;SDS011;38119;52.710;6.398;2023-08-20T14:18:47;4.32;;;1.20;;
52124;SDS011;38119;52.710;6.398;2023-08-20T14:22:02;2.95;;;1.10;;
52124;SDS011;38119;52.710;6.398;2023-08-20T14:24:29;3.80;;;1.05;;
52124;SDS011;38119;52.710;6.398;2023-08-20T14:27:09;4.47;;;1.10;;
52124;SDS011;38119;52.710;6.398;2023-08-20T14:29:36;3.63;;;1.20;;
52124;SDS011;38119;52.710;6.398;2023-08-20T14:32:05;3.50;;;1.20;;
52124;SDS011;38119;52.710;6.398;2023-08-20T14:34:32;2.47;;;1.05;;
52124;SDS011;38119;52.710;6.398;2023-08-20T14:36:59;3.75;;;1.20;;
52124;SDS011;38119;52.710;6.398;2023-08-20T14:39:31;5.05;;;1.42;;
52124;SDS011;38119;52.710;6.398;2023-08-20T14:42:05;4.50;;;1.15;;
52124;SDS011;38119;52.710;6.398;2023-08-20T14:44:31;2.97;;;1.20;;
52124;SDS011;38119;52.710;6.398;2023-08-20T14:47:25;3.92;;;1.30;;
52124;SDS011;38119;52.710;6.398;2023-08-20T14:49:54;4.22;;;1.10;;
52124;SDS011;38119;52.710;6.398;2023-08-20T14:52:48;2.42;;;1.00;;
52124;SDS011;38119;52.710;6.398;2023-08-20T14:55:26;4.03;;;1.20;;
52124;SDS011;38119;52.710;6.398;2023-08-20T14:58:06;3.97;;;1.17;;
52124;SDS011;38119;52.710;6.398;2023-08-20T15:01:02;4.72;;;1.27;;
52124;SDS011;38119;52.710;6.398;2023-08-20T15:03:29;2.42;;;1.00;;
52124;SDS011;38119;52.710;6.398;2023-08-20T15:05:56;3.17;;;1.13;;
52124;SDS011;38119;52.710;6.398;2023-08-20T15:08:23;7.03;;;1.40;;
52124;SDS011;38119;52.710;6.398;2023-08-20T15:10:59;5.53;;;1.60;;
52124;SDS011;38119;52.710;6.398;2023-08-20T15:13:30;5.03;;;1.50;;
52124;SDS011;38119;52.710;6.398;2023-08-20T15:15:56;5.35;;;1.45;;
52124;SDS011;38119;52.710;6.398;2023-08-20T15:18:23;4.13;;;1.33;;
52124;SDS011;38119;52.710;6.398;2023-08-20T15:20:55;3.72;;;1.20;;
52124;SDS011;38119;52.710;6.398;2023-08-20T15:23:25;5.38;;;1.55;;
52124;SDS011;38119;52.710;6.398;2023-08-20T15:25:55;4.07;;;1.50;;
52124;SDS011;38119;52.710;6.398;2023-08-20T15:28:26;4.40;;;1.33;;
52124;SDS011;38119;52.710;6.398;2023-08-20T15:30:55;4.03;;;1.33;;
52124;SDS011;38119;52.710;6.398;2023-08-20T15:33:24;4.63;;;1.35;;
52124;SDS011;38119;52.710;6.398;2023-08-20T15:35:49;5.43;;;1.42;;
52124;SDS011;38119;52.710;6.398;2023-08-20T15:38:15;4.70;;;1.50;;
52124;SDS011;38119;52.710;6.398;2023-08-20T15:40:41;6.82;;;1.48;;